Terminal Aerodrome Forecast
Issued by NWS Amarillo, TX

Home | Current Version | Previous Version | Text Only | Print | Product List | Glossary On
Versions: 1 2 3 4 5 6 7 8 9 10 11 12 13 14 15 16 17 18 19 20 21 22 23 24 25
298
FTUS44 KAMA 202338
TAFGUY
TAF
KGUY 202338Z 2100/2124 31013G23KT P6SM SCT300
     FM210200 23007KT P6SM BKN300
     FM211600 23014G24KT P6SM SCT050 OVC100=

USA.gov is the U.S. government's official web portal to all federal, state and local government web resources and services.